createdAt,value
2022-12-17T00:00:41.151Z,101717.28
2022-12-17T00:03:43.118Z,101714.56
2022-12-17T00:06:40.509Z,101719.13
2022-12-17T00:09:48.577Z,101714.56
2022-12-17T00:12:57.986Z,101727.13
2022-12-17T00:15:53.120Z,101730.03
2022-12-17T00:18:57.644Z,101743.72
2022-12-17T00:21:59.662Z,101736.56
2022-12-17T00:24:56.390Z,101744.75
2022-12-17T00:27:51.819Z,101748.03
2022-12-17T00:30:47.808Z,101749.84
2022-12-17T00:33:43.951Z,101748.41
2022-12-17T00:36:40.533Z,101749.91
2022-12-17T00:39:45.808Z,101751.75
2022-12-17T00:42:42.997Z,101764.13
2022-12-17T00:45:36.292Z,101763.03
2022-12-17T00:48:41.946Z,101756.59
2022-12-17T00:51:43.288Z,101765.50
2022-12-17T00:54:43.529Z,101767.31
2022-12-17T00:57:35.780Z,101768.22
2022-12-17T01:00:34.901Z,101769.81
2022-12-17T01:03:30.881Z,101774.13
2022-12-17T01:06:25.254Z,101781.03
2022-12-17T01:09:17.560Z,101781.56
2022-12-17T01:12:09.935Z,101783.72
2022-12-17T01:15:01.966Z,101790.28
2022-12-17T01:17:54.670Z,101803.03
2022-12-17T01:20:48.104Z,101798.13
2022-12-17T01:23:42.342Z,101801.56
2022-12-17T01:26:35.249Z,101805.97
2022-12-17T01:29:33.535Z,101802.69
2022-12-17T01:32:25.446Z,101809.81
2022-12-17T01:35:17.674Z,101809.81
2022-12-17T01:38:09.484Z,101813.28
2022-12-17T01:41:10.026Z,101811.81
2022-12-17T01:44:02.145Z,101816.19
2022-12-17T01:46:57.466Z,101819.47
2022-12-17T01:49:49.800Z,101823.84
2022-12-17T01:52:41.892Z,101822.19
2022-12-17T01:55:34.450Z,101819.97
2022-12-17T01:58:28.207Z,101820.25
2022-12-17T02:01:20.631Z,101820.97
2022-12-17T02:04:13.077Z,101826.63
2022-12-17T02:07:15.640Z,101827.53
2022-12-17T02:10:12.101Z,101829.69
2022-12-17T02:13:09.328Z,101825.31
2022-12-17T02:16:09.149Z,101816.56
2022-12-17T02:19:05.859Z,101824.00
2022-12-17T02:21:59.233Z,101813.44
2022-12-17T02:25:03.014Z,101809.38
2022-12-17T02:27:55.655Z,101812.94
2022-12-17T02:30:48.906Z,101806.38
2022-12-17T02:33:40.270Z,101812.91
2022-12-17T02:36:31.505Z,101822.00
2022-12-17T02:39:23.146Z,101814.94
2022-12-17T02:42:16.373Z,101816.75
2022-12-17T02:45:09.342Z,101814.34
2022-12-17T02:48:01.486Z,101822.38
2022-12-17T02:50:52.818Z,101827.28
2022-12-17T02:53:43.730Z,101828.84
2022-12-17T02:56:35.132Z,101832.41
2022-12-17T02:59:29.211Z,101827.31
2022-12-17T03:02:21.965Z,101828.97
2022-12-17T03:05:42.859Z,101822.66
2022-12-17T03:08:24.361Z,101824.97
2022-12-17T03:11:15.444Z,101832.75
2022-12-17T03:14:06.567Z,101834.72
2022-12-17T03:16:57.997Z,101837.78
2022-12-17T03:19:50.701Z,101841.25
2022-12-17T03:22:41.962Z,101841.25
2022-12-17T03:25:33.537Z,101848.28
2022-12-17T03:28:26.988Z,101855.94
2022-12-17T03:31:18.785Z,101847.66
2022-12-17T03:34:10.002Z,101850.03
2022-12-17T03:37:02.539Z,101851.25
2022-12-17T03:39:53.563Z,101852.19
2022-12-17T03:42:45.052Z,101854.00
2022-12-17T03:45:36.223Z,101858.50
2022-12-17T03:48:29.779Z,101857.91
2022-12-17T03:51:29.509Z,101859.16
2022-12-17T03:54:22.568Z,101856.00
2022-12-17T03:57:16.227Z,101864.34
2022-12-17T04:00:07.636Z,101861.38
2022-12-17T04:02:58.984Z,101858.44
2022-12-17T04:05:50.243Z,101860.06
2022-12-17T04:08:41.332Z,101858.03
2022-12-17T04:11:33.983Z,101860.78
2022-12-17T04:14:25.210Z,101857.34
2022-12-17T04:17:16.586Z,101854.06
2022-12-17T04:20:07.742Z,101866.59
2022-12-17T04:22:59.278Z,101862.75
2022-12-17T04:25:50.111Z,101860.72
2022-12-17T04:28:42.771Z,101872.00
2022-12-17T04:31:34.135Z,101870.38
2022-12-17T04:34:25.458Z,101868.34
2022-12-17T04:37:16.643Z,101865.28
2022-12-17T04:40:08.079Z,101870.19
2022-12-17T04:46:16.634Z,101864.78
2022-12-17T04:49:07.765Z,101867.13
2022-12-17T04:51:59.058Z,101866.41
2022-12-17T04:54:49.995Z,101871.09
2022-12-17T04:57:41.299Z,101868.88
2022-12-17T05:00:33.009Z,101869.38
2022-12-17T05:03:29.977Z,101876.81
2022-12-17T05:06:21.426Z,101886.38
2022-12-17T05:09:12.883Z,101883.63
2022-12-17T05:12:04.241Z,101883.63
2022-12-17T05:14:55.298Z,101897.28
2022-12-17T05:17:46.159Z,101891.47
2022-12-17T05:20:38.785Z,101895.94
2022-12-17T05:23:30.156Z,101900.53
2022-12-17T05:26:24.125Z,101883.91
2022-12-17T05:29:16.116Z,101903.38
2022-12-17T05:32:08.222Z,101897.56
2022-12-17T05:34:59.242Z,101901.72
2022-12-17T05:37:51.992Z,101908.44
2022-12-17T05:40:43.204Z,101906.81
2022-12-17T05:43:35.164Z,101902.25
2022-12-17T05:46:26.657Z,101903.66
2022-12-17T05:49:17.906Z,101908.56
2022-12-17T05:52:09.146Z,101910.50
2022-12-17T05:55:01.771Z,101909.38
2022-12-17T05:57:56.441Z,101903.56
2022-12-17T06:00:48.150Z,101899.00
2022-12-17T06:03:39.927Z,101913.84
2022-12-17T06:06:31.663Z,101918.75
2022-12-17T06:09:37.312Z,101921.09
2022-12-17T06:12:30.093Z,101919.72
2022-12-17T06:15:21.592Z,101923.69
2022-12-17T06:18:16.640Z,101925.81
2022-12-17T06:21:11.113Z,101926.34
2022-12-17T06:24:02.794Z,101935.38
2022-12-17T06:26:54.126Z,101940.47
2022-12-17T06:29:46.812Z,101939.84
2022-12-17T06:32:38.062Z,101948.19
2022-12-17T06:35:29.442Z,101950.53
2022-12-17T06:38:22.430Z,101950.28
2022-12-17T06:41:13.913Z,101943.81
2022-12-17T06:44:05.325Z,101945.66
2022-12-17T06:46:58.017Z,101950.22
2022-12-17T06:49:49.345Z,101952.78
2022-12-17T06:52:40.700Z,101952.06
2022-12-17T06:55:32.034Z,101956.94
2022-12-17T06:58:23.509Z,101948.41
2022-12-17T07:01:14.962Z,101945.88
2022-12-17T07:04:07.578Z,101959.09
2022-12-17T07:06:58.626Z,101964.16
2022-12-17T07:09:50.203Z,101969.97
2022-12-17T07:12:41.542Z,101978.00
2022-12-17T07:15:33.066Z,101973.13
2022-12-17T07:18:24.315Z,101974.34
2022-12-17T07:21:17.059Z,101981.47
2022-12-17T07:24:08.035Z,101977.28
2022-12-17T07:26:59.328Z,101983.09
2022-12-17T07:29:50.644Z,101991.63
2022-12-17T07:32:41.971Z,101997.84
2022-12-17T07:35:33.248Z,102009.03
2022-12-17T07:38:27.376Z,102011.34
2022-12-17T07:41:18.871Z,102016.41
2022-12-17T07:44:10.511Z,102020.16
2022-12-17T07:47:01.865Z,102016.00
2022-12-17T07:49:53.477Z,102015.09
2022-12-17T07:52:53.035Z,102018.03
2022-12-17T07:55:45.737Z,102022.66
2022-12-17T07:58:36.957Z,102032.84
2022-12-17T08:01:28.513Z,102030.91
2022-12-17T08:04:19.889Z,102040.59
2022-12-17T08:07:14.190Z,102038.66
2022-12-17T08:10:05.633Z,102037.53
2022-12-17T08:12:58.313Z,102039.59
2022-12-17T08:15:49.358Z,102047.13
2022-12-17T08:18:40.730Z,102051.50
2022-12-17T08:21:32.042Z,102053.78
2022-12-17T08:24:23.953Z,102046.78
2022-12-17T08:27:16.182Z,102055.03
2022-12-17T08:30:09.191Z,102062.44
2022-12-17T08:33:00.715Z,102067.03
2022-12-17T08:35:52.380Z,102071.31
2022-12-17T08:38:48.513Z,102066.69
2022-12-17T08:41:39.796Z,102075.44
2022-12-17T08:44:30.677Z,102081.66
2022-12-17T08:47:23.446Z,102085.31
2022-12-17T08:50:14.310Z,102099.19
2022-12-17T08:53:06.314Z,102088.78
2022-12-17T08:55:57.301Z,102093.56
2022-12-17T08:58:48.546Z,102096.53
2022-12-17T09:01:39.466Z,102096.75
2022-12-17T09:04:31.826Z,102096.94
2022-12-17T09:07:23.033Z,102101.78
2022-12-17T09:10:14.252Z,102111.16
2022-12-17T09:13:06.013Z,102104.84
2022-12-17T09:15:57.472Z,102114.53
2022-12-17T09:18:48.454Z,102114.44
2022-12-17T09:21:41.010Z,102107.69
2022-12-17T09:24:32.535Z,102112.78
2022-12-17T09:27:23.825Z,102114.78
2022-12-17T09:30:16.983Z,102108.03
2022-12-17T09:33:08.566Z,102101.72
2022-12-17T09:36:00.163Z,102096.63
2022-12-17T09:38:53.380Z,102108.69
2022-12-17T09:41:47.063Z,102107.56
2022-12-17T09:44:43.377Z,102100.94
2022-12-17T09:47:46.882Z,102108.78
2022-12-17T09:50:38.752Z,102101.78
2022-12-17T09:53:41.713Z,102107.38
2022-12-17T09:56:40.456Z,102110.25
2022-12-17T09:59:38.920Z,102113.56
2022-12-17T10:02:33.816Z,102109.81
2022-12-17T10:05:30.924Z,102120.59
2022-12-17T10:08:24.804Z,102110.28
2022-12-17T10:11:34.171Z,102122.75
2022-12-17T10:14:36.155Z,102118.50
2022-12-17T10:17:33.823Z,102120.09
2022-12-17T10:20:37.155Z,102123.78
2022-12-17T10:23:28.378Z,102134.84
2022-12-17T10:26:21.616Z,102125.41
2022-12-17T10:29:24.802Z,102129.00
2022-12-17T10:32:26.859Z,102136.88
2022-12-17T10:35:20.817Z,102126.09
2022-12-17T10:38:12.721Z,102127.06
2022-12-17T10:41:19.668Z,102132.22
2022-12-17T10:44:11.650Z,102135.06
2022-12-17T10:47:17.617Z,102126.72
2022-12-17T10:50:17.413Z,102131.88
2022-12-17T10:53:09.873Z,102135.81
2022-12-17T10:56:07.835Z,102137.78
2022-12-17T10:59:04.357Z,102129.88
2022-12-17T11:01:58.052Z,102140.72
2022-12-17T11:04:51.593Z,102134.16
2022-12-17T11:07:48.289Z,102134.38
2022-12-17T11:10:44.273Z,102132.59
2022-12-17T11:13:47.175Z,102134.69
2022-12-17T11:16:41.799Z,102131.41
2022-12-17T11:19:46.604Z,102123.09
2022-12-17T11:22:55.119Z,102129.13
2022-12-17T11:26:04.649Z,102126.56
2022-12-17T11:28:56.269Z,102130.75
2022-12-17T11:32:11.324Z,102125.28
2022-12-17T11:35:19.550Z,102119.78
2022-12-17T11:38:22.473Z,102129.31
2022-12-17T11:41:20.309Z,102123.84
2022-12-17T11:44:20.444Z,102128.97
2022-12-17T11:47:31.721Z,102128.06
2022-12-17T11:50:38.314Z,102126.78
2022-12-17T11:53:53.229Z,102129.94
2022-12-17T11:56:51.388Z,102133.41
2022-12-17T11:59:52.493Z,102139.84
2022-12-17T12:02:59.679Z,102136.00
2022-12-17T12:06:00.480Z,102138.75
2022-12-17T12:08:59.215Z,102133.47
2022-12-17T12:11:59.530Z,102137.53
2022-12-17T12:15:00.196Z,102134.06
2022-12-17T12:18:01.999Z,102136.09
2022-12-17T12:21:11.051Z,102136.81
2022-12-17T12:24:18.242Z,102141.75
2022-12-17T12:27:23.093Z,102140.66
2022-12-17T12:30:21.129Z,102139.06
2022-12-17T12:33:26.189Z,102136.69
2022-12-17T12:36:22.235Z,102134.69
2022-12-17T12:39:18.424Z,102133.41
2022-12-17T12:42:17.791Z,102133.25
2022-12-17T12:45:18.575Z,102131.44
2022-12-17T12:48:17.392Z,102142.41
2022-12-17T12:51:16.530Z,102151.59
2022-12-17T12:54:16.912Z,102147.03
2022-12-17T12:57:08.130Z,102150.69
2022-12-17T13:00:06.621Z,102142.63
2022-12-17T13:02:58.143Z,102145.19
2022-12-17T13:05:38.891Z,102143.34
2022-12-17T13:08:25.041Z,102146.50
2022-12-17T13:11:11.845Z,102149.97
2022-12-17T13:13:56.744Z,102149.25
2022-12-17T13:16:40.232Z,102149.25
2022-12-17T13:19:32.497Z,102153.09
2022-12-17T13:22:27.824Z,102151.44
2022-12-17T13:25:17.559Z,102147.78
2022-12-17T13:27:52.536Z,102149.41
2022-12-17T13:30:35.324Z,102153.28
2022-12-17T13:33:23.654Z,102158.59
2022-12-17T13:36:07.563Z,102149.97
2022-12-17T13:38:50.995Z,102154.88
2022-12-17T13:41:30.037Z,102156.00
2022-12-17T13:44:16.866Z,102160.97
2022-12-17T13:46:55.285Z,102158.91
2022-12-17T13:49:30.238Z,102154.53
2022-12-17T13:52:11.556Z,102160.56
2022-12-17T13:54:45.226Z,102166.44
2022-12-17T13:57:21.709Z,102162.22
2022-12-17T13:59:58.928Z,102166.63
2022-12-17T14:02:35.224Z,102172.28
2022-12-17T14:05:24.697Z,102177.97
2022-12-17T14:08:01.486Z,102179.44
2022-12-17T14:10:35.494Z,102182.72
2022-12-17T14:13:10.643Z,102180.34
2022-12-17T14:15:51.194Z,102185.13
2022-12-17T14:18:25.491Z,102177.00
2022-12-17T14:20:59.194Z,102195.13
2022-12-17T14:23:34.270Z,102189.09
2022-12-17T14:26:10.436Z,102192.03
2022-12-17T14:28:50.469Z,102196.78
2022-12-17T14:31:28.807Z,102199.66
2022-12-17T14:34:08.039Z,102197.03
2022-12-17T14:36:43.896Z,102205.03
2022-12-17T14:39:20.579Z,102194.88
2022-12-17T14:42:12.672Z,102195.44
2022-12-17T14:44:52.234Z,102195.97
2022-12-17T14:47:29.345Z,102196.66
2022-12-17T14:50:07.405Z,102208.34
2022-12-17T14:52:43.124Z,102200.41
2022-12-17T14:55:30.686Z,102200.94
2022-12-17T14:58:21.847Z,102201.09
2022-12-17T15:01:01.043Z,102204.59
2022-12-17T15:03:40.963Z,102205.31
2022-12-17T15:06:18.678Z,102206.03
2022-12-17T15:08:53.341Z,102217.03
2022-12-17T15:11:27.280Z,102208.97
2022-12-17T15:14:00.885Z,102211.69
2022-12-17T15:16:34.675Z,102216.44
2022-12-17T15:19:09.636Z,102216.25
2022-12-17T15:21:43.450Z,102219.34
2022-12-17T15:24:20.911Z,102217.09
2022-12-17T15:26:54.719Z,102215.81
2022-12-17T15:29:28.892Z,102218.16
2022-12-17T15:32:03.423Z,102214.13
2022-12-17T15:34:38.361Z,102223.41
2022-12-17T15:37:12.041Z,102223.00
2022-12-17T15:39:45.552Z,102218.41
2022-12-17T15:42:37.174Z,102218.75
2022-12-17T15:45:11.239Z,102217.66
2022-12-17T15:47:45.014Z,102209.78
2022-12-17T15:50:20.525Z,102215.97
2022-12-17T15:52:54.357Z,102215.56
2022-12-17T15:55:28.019Z,102221.91
2022-12-17T15:58:01.926Z,102219.88
2022-12-17T16:00:36.225Z,102223.91
2022-12-17T16:03:10.245Z,102230.84
2022-12-17T16:05:46.340Z,102222.25
2022-12-17T16:08:20.155Z,102234.47
2022-12-17T16:10:53.812Z,102236.81
2022-12-17T16:13:27.664Z,102229.69
2022-12-17T16:16:04.145Z,102234.22
2022-12-17T16:18:39.539Z,102231.03
2022-12-17T16:21:14.965Z,102240.31
2022-12-17T16:23:48.836Z,102240.09
2022-12-17T16:26:22.556Z,102240.81
2022-12-17T16:28:58.367Z,102247.38
2022-12-17T16:31:32.171Z,102241.88
2022-12-17T16:34:09.875Z,102252.41
2022-12-17T16:36:44.871Z,102246.72
2022-12-17T16:39:20.329Z,102248.16
2022-12-17T16:41:54.295Z,102252.66
2022-12-17T16:44:28.200Z,102253.00
2022-12-17T16:47:01.855Z,102262.09
2022-12-17T16:49:35.644Z,102256.38
2022-12-17T16:52:10.518Z,102254.88
2022-12-17T16:54:44.397Z,102244.25
2022-12-17T16:57:18.138Z,102253.34
2022-12-17T16:59:51.871Z,102251.13
2022-12-17T17:02:25.678Z,102246.34
2022-12-17T17:04:59.450Z,102248.47
2022-12-17T17:07:34.362Z,102258.41
2022-12-17T17:10:08.616Z,102267.50
2022-12-17T17:12:42.189Z,102261.34
2022-12-17T17:15:16.074Z,102261.28
2022-12-17T17:17:54.196Z,102263.84
2022-12-17T17:20:32.398Z,102266.19
2022-12-17T17:23:07.611Z,102271.63
2022-12-17T17:25:58.301Z,102273.97
2022-12-17T17:28:32.254Z,102280.47
2022-12-17T17:31:08.647Z,102281.41
2022-12-17T17:33:44.507Z,102287.75
2022-12-17T17:36:20.032Z,102287.34
2022-12-17T17:38:59.697Z,102287.34
2022-12-17T17:41:35.263Z,102279.28
2022-12-17T17:44:11.492Z,102290.22
2022-12-17T17:46:45.387Z,102295.09
2022-12-17T17:49:19.146Z,102294.72
2022-12-17T17:52:10.318Z,102291.94
2022-12-17T17:54:45.784Z,102300.53
2022-12-17T17:57:19.662Z,102299.00
2022-12-17T17:59:53.285Z,102303.88
2022-12-17T18:02:27.237Z,102305.09
2022-12-17T18:05:00.854Z,102305.81
2022-12-17T18:07:34.663Z,102305.09
2022-12-17T18:10:10.921Z,102309.81
2022-12-17T18:13:02.203Z,102305.41
2022-12-17T18:15:35.884Z,102306.97
2022-12-17T18:18:14.352Z,102313.28
2022-12-17T18:20:48.450Z,102315.19
2022-12-17T18:23:22.191Z,102323.75
2022-12-17T18:25:57.063Z,102321.22
2022-12-17T18:28:30.818Z,102324.41
2022-12-17T18:31:09.493Z,102321.94
2022-12-17T18:33:46.888Z,102321.31
2022-12-17T18:36:22.542Z,102320.69
2022-12-17T18:38:57.138Z,102315.91
2022-12-17T18:41:50.130Z,102325.41
2022-12-17T18:44:24.717Z,102333.56
2022-12-17T18:46:59.178Z,102338.44
2022-12-17T18:49:33.126Z,102346.56
2022-12-17T18:52:09.359Z,102345.25
2022-12-17T18:54:45.805Z,102353.41
2022-12-17T18:57:20.884Z,102345.53
2022-12-17T18:59:54.654Z,102345.84
2022-12-17T19:02:28.367Z,102344.22
2022-12-17T19:05:02.233Z,102351.66
2022-12-17T19:07:35.955Z,102362.78
2022-12-17T19:10:10.676Z,102354.94
2022-12-17T19:12:46.109Z,102354.72
2022-12-17T19:15:20.203Z,102360.84
2022-12-17T19:17:53.694Z,102369.88
2022-12-17T19:20:27.382Z,102356.19
2022-12-17T19:23:00.980Z,102362.50
2022-12-17T19:25:35.017Z,102372.50
2022-12-17T19:28:09.816Z,102376.28
2022-12-17T19:30:43.578Z,102387.69
2022-12-17T19:33:17.174Z,102384.50
2022-12-17T19:35:50.988Z,102383.59
2022-12-17T19:38:24.508Z,102386.34
2022-12-17T19:41:04.154Z,102385.00
2022-12-17T19:43:39.189Z,102385.47
2022-12-17T19:46:17.072Z,102389.44
2022-12-17T19:48:51.792Z,102394.75
2022-12-17T19:51:29.631Z,102383.63
2022-12-17T19:54:08.537Z,102382.50
2022-12-17T19:56:44.172Z,102380.47
2022-12-17T19:59:19.208Z,102366.78
2022-12-17T20:01:53.495Z,102378.69
2022-12-17T20:04:27.099Z,102382.66
2022-12-17T20:07:01.131Z,102382.38
2022-12-17T20:09:34.709Z,102379.13
2022-12-17T20:12:08.664Z,102388.19
2022-12-17T20:14:43.562Z,102393.06
2022-12-17T20:17:17.363Z,102392.16
2022-12-17T20:19:53.363Z,102391.03
2022-12-17T20:22:29.281Z,102387.06
2022-12-17T20:25:06.580Z,102395.41
2022-12-17T20:27:40.346Z,102399.09
2022-12-17T20:30:15.311Z,102397.16
2022-12-17T20:32:53.340Z,102397.47
2022-12-17T20:35:30.073Z,102388.69
2022-12-17T20:38:03.796Z,102393.06
2022-12-17T20:40:40.297Z,102403.25
2022-12-17T20:43:14.345Z,102403.59
2022-12-17T20:45:50.402Z,102407.41
2022-12-17T20:48:24.738Z,102408.34
2022-12-17T20:50:58.312Z,102414.84
2022-12-17T20:53:32.016Z,102411.88
2022-12-17T20:56:08.011Z,102410.31
2022-12-17T20:58:42.899Z,102409.63
2022-12-17T21:01:20.741Z,102407.09
2022-12-17T21:03:56.234Z,102410.16
2022-12-17T21:06:34.359Z,102416.38
2022-12-17T21:09:08.569Z,102414.31
2022-12-17T21:11:42.714Z,102417.16
2022-12-17T21:14:18.480Z,102413.47
2022-12-17T21:16:53.550Z,102414.19
2022-12-17T21:19:27.876Z,102414.69
2022-12-17T21:22:01.515Z,102419.38
2022-12-17T21:24:35.741Z,102425.66
2022-12-17T21:27:14.474Z,102429.63
2022-12-17T21:29:48.861Z,102437.03
2022-12-17T21:32:26.534Z,102434.97
2022-12-17T21:35:04.501Z,102438.22
2022-12-17T21:37:38.116Z,102439.84
2022-12-17T21:40:12.932Z,102444.25
2022-12-17T21:43:04.611Z,102448.63
2022-12-17T21:45:40.039Z,102451.16
2022-12-17T21:48:15.527Z,102445.38
2022-12-17T21:50:49.658Z,102452.59
2022-12-17T21:53:24.076Z,102454.69
2022-12-17T21:56:04.132Z,102444.53
2022-12-17T21:58:38.501Z,102444.75
2022-12-17T22:01:18.955Z,102451.25
2022-12-17T22:03:56.040Z,102448.50
2022-12-17T22:06:38.931Z,102454.06
2022-12-17T22:09:29.316Z,102453.84
2022-12-17T22:12:26.659Z,102450.38
2022-12-17T22:15:00.246Z,102452.28
2022-12-17T22:17:34.711Z,102452.28
2022-12-17T22:20:11.247Z,102462.03
2022-12-17T22:22:45.457Z,102451.16
2022-12-17T22:25:19.783Z,102454.41
2022-12-17T22:27:53.754Z,102450.44
2022-12-17T22:30:44.882Z,102448.81
2022-12-17T22:33:47.525Z,102451.22
2022-12-17T22:38:46.875Z,102447.03
2022-12-17T22:44:35.294Z,102445.41
2022-12-17T22:44:41.439Z,102450.72
2022-12-17T22:45:19.507Z,102454.63
2022-12-17T22:47:53.477Z,102450.59
2022-12-17T22:50:28.554Z,102457.75
2022-12-17T22:53:22.813Z,102457.25
2022-12-17T22:56:14.703Z,102456.41
2022-12-17T22:58:59.341Z,102465.44
2022-12-17T23:01:33.956Z,102463.56
2022-12-17T23:04:07.632Z,102452.72
2022-12-17T23:06:41.581Z,102451.59
2022-12-17T23:09:19.140Z,102443.94
2022-12-17T23:11:53.213Z,102452.00
2022-12-17T23:14:26.739Z,102452.44
2022-12-17T23:17:00.652Z,102445.78
2022-12-17T23:19:34.298Z,102434.91
2022-12-17T23:22:08.093Z,102447.41
2022-12-17T23:24:43.009Z,102450.88
2022-12-17T23:27:16.748Z,102453.03
2022-12-17T23:29:50.656Z,102458.59
2022-12-17T23:32:24.389Z,102456.09
2022-12-17T23:34:57.966Z,102455.16
2022-12-17T23:37:35.173Z,102458.69
2022-12-17T23:40:14.903Z,102454.56
2022-12-17T23:42:49.110Z,102462.69
2022-12-17T23:45:22.621Z,102459.91
2022-12-17T23:47:57.457Z,102458.78
2022-12-17T23:50:31.094Z,102458.56
2022-12-17T23:53:04.749Z,102466.72
2022-12-17T23:55:39.736Z,102467.22
2022-12-17T23:58:13.522Z,102469.75
